sensor_id;sensor_type;location;lat;lon;timestamp;pressure;altitude;pressure_sealevel;temperature;humidity
4199;BME280;2113;50.946;14.610;2023-04-04T00:01:05;98112.53;;;-0.90;80.53
4199;BME280;2113;50.946;14.610;2023-04-04T00:03:34;98105.81;;;-0.94;80.49
4199;BME280;2113;50.946;14.610;2023-04-04T00:06:03;98106.47;;;-0.88;80.28
4199;BME280;2113;50.946;14.610;2023-04-04T00:08:31;98110.09;;;-0.95;80.23
4199;BME280;2113;50.946;14.610;2023-04-04T00:10:59;98104.03;;;-0.92;80.38
4199;BME280;2113;50.946;14.610;2023-04-04T00:13:29;98100.69;;;-0.94;80.70
4199;BME280;2113;50.946;14.610;2023-04-04T00:15:58;98097.91;;;-0.87;80.67
4199;BME280;2113;50.946;14.610;2023-04-04T00:18:26;98095.47;;;-0.91;81.56
4199;BME280;2113;50.946;14.610;2023-04-04T00:20:55;98094.53;;;-0.89;80.60
4199;BME280;2113;50.946;14.610;2023-04-04T00:23:23;98092.94;;;-0.93;80.58
4199;BME280;2113;50.946;14.610;2023-04-04T00:25:51;98087.22;;;-1.01;80.90
4199;BME280;2113;50.946;14.610;2023-04-04T00:28:20;98086.31;;;-1.00;81.47
4199;BME280;2113;50.946;14.610;2023-04-04T00:30:50;98084.72;;;-1.04;82.12
4199;BME280;2113;50.946;14.610;2023-04-04T00:33:18;98085.28;;;-0.94;81.35
4199;BME280;2113;50.946;14.610;2023-04-04T00:35:47;98082.59;;;-0.90;81.15
4199;BME280;2113;50.946;14.610;2023-04-04T00:38:16;98074.16;;;-0.93;81.32
4199;BME280;2113;50.946;14.610;2023-04-04T00:40:46;98068.50;;;-1.04;80.98
4199;BME280;2113;50.946;14.610;2023-04-04T00:43:17;98070.03;;;-0.97;80.29
4199;BME280;2113;50.946;14.610;2023-04-04T00:45:45;98070.22;;;-1.05;80.15
4199;BME280;2113;50.946;14.610;2023-04-04T00:48:15;98067.84;;;-1.11;80.56
4199;BME280;2113;50.946;14.610;2023-04-04T00:50:43;98069.63;;;-1.13;81.21
4199;BME280;2113;50.946;14.610;2023-04-04T00:53:11;98066.06;;;-1.09;81.03
4199;BME280;2113;50.946;14.610;2023-04-04T00:55:40;98069.56;;;-1.12;81.33
4199;BME280;2113;50.946;14.610;2023-04-04T00:58:09;98068.81;;;-1.15;81.87
4199;BME280;2113;50.946;14.610;2023-04-04T01:00:38;98071.50;;;-1.20;81.96
4199;BME280;2113;50.946;14.610;2023-04-04T01:03:08;98066.22;;;-1.14;81.85
4199;BME280;2113;50.946;14.610;2023-04-04T01:05:41;98068.88;;;-1.18;82.62
4199;BME280;2113;50.946;14.610;2023-04-04T01:08:10;98067.44;;;-1.27;82.92
4199;BME280;2113;50.946;14.610;2023-04-04T01:10:38;98068.88;;;-1.18;82.62
4199;BME280;2113;50.946;14.610;2023-04-04T01:13:07;98068.84;;;-1.17;82.69
4199;BME280;2113;50.946;14.610;2023-04-04T01:15:36;98060.31;;;-1.17;82.88
4199;BME280;2113;50.946;14.610;2023-04-04T01:18:04;98060.84;;;-1.06;83.02
4199;BME280;2113;50.946;14.610;2023-04-04T01:20:36;98063.59;;;-1.12;82.49
4199;BME280;2113;50.946;14.610;2023-04-04T01:23:09;98058.53;;;-1.14;nan
4199;BME280;2113;50.946;14.610;2023-04-04T01:25:40;98057.59;;;-1.11;82.42
4199;BME280;2113;50.946;14.610;2023-04-04T01:28:12;98050.06;;;-1.17;82.47
4199;BME280;2113;50.946;14.610;2023-04-04T01:30:43;98047.53;;;-1.19;82.40
4199;BME280;2113;50.946;14.610;2023-04-04T01:33:15;98041.50;;;-1.16;82.05
4199;BME280;2113;50.946;14.610;2023-04-04T01:35:52;98046.63;;;-1.16;81.21
4199;BME280;2113;50.946;14.610;2023-04-04T01:38:29;98041.38;;;-1.12;81.29
4199;BME280;2113;50.946;14.610;2023-04-04T01:41:04;98038.81;;;-1.12;81.67
4199;BME280;2113;50.946;14.610;2023-04-04T01:43:35;98039.94;;;-1.22;81.82
4199;BME280;2113;50.946;14.610;2023-04-04T01:46:04;98040.03;;;-1.25;82.27
4199;BME280;2113;50.946;14.610;2023-04-04T01:48:32;98035.63;;;-1.20;82.36
4199;BME280;2113;50.946;14.610;2023-04-04T01:51:04;98043.25;;;-1.18;82.47
4199;BME280;2113;50.946;14.610;2023-04-04T01:53:33;98043.19;;;-1.15;82.21
4199;BME280;2113;50.946;14.610;2023-04-04T01:56:04;98032.25;;;-1.22;82.07
4199;BME280;2113;50.946;14.610;2023-04-04T01:58:33;98039.16;;;-1.24;82.59
4199;BME280;2113;50.946;14.610;2023-04-04T02:01:01;98036.69;;;-1.27;83.06
4199;BME280;2113;50.946;14.610;2023-04-04T02:03:29;98036.69;;;-1.27;82.79
4199;BME280;2113;50.946;14.610;2023-04-04T02:05:58;98034.81;;;-1.22;82.17
4199;BME280;2113;50.946;14.610;2023-04-04T02:08:26;98029.13;;;-1.31;82.65
4199;BME280;2113;50.946;14.610;2023-04-04T02:10:56;98029.97;;;-1.31;82.59
4199;BME280;2113;50.946;14.610;2023-04-04T02:13:27;98021.63;;;-1.37;82.57
4199;BME280;2113;50.946;14.610;2023-04-04T02:15:57;98025.78;;;-1.35;nan
4199;BME280;2113;50.946;14.610;2023-04-04T02:18:26;98022.34;;;-1.34;82.63
4199;BME280;2113;50.946;14.610;2023-04-04T02:20:54;98024.91;;;-1.34;82.29
4199;BME280;2113;50.946;14.610;2023-04-04T02:23:23;98026.78;;;-1.39;82.17
4199;BME280;2113;50.946;14.610;2023-04-04T02:25:52;98025.81;;;-1.36;81.73
4199;BME280;2113;50.946;14.610;2023-04-04T02:28:20;98022.50;;;-1.38;82.42
4199;BME280;2113;50.946;14.610;2023-04-04T02:30:50;98028.56;;;-1.42;81.50
4199;BME280;2113;50.946;14.610;2023-04-04T02:33:18;98020.72;;;-1.36;80.71
4199;BME280;2113;50.946;14.610;2023-04-04T02:35:47;98022.50;;;-1.38;80.45
4199;BME280;2113;50.946;14.610;2023-04-04T02:38:16;98017.38;;;-1.38;79.50
4199;BME280;2113;50.946;14.610;2023-04-04T02:40:45;98017.25;;;-1.35;78.08
4199;BME280;2113;50.946;14.610;2023-04-04T02:43:14;98019.09;;;-1.39;78.49
4199;BME280;2113;50.946;14.610;2023-04-04T02:45:43;98017.44;;;-1.41;77.24
4199;BME280;2113;50.946;14.610;2023-04-04T02:48:22;98010.81;;;-1.49;78.01
4199;BME280;2113;50.946;14.610;2023-04-04T02:50:55;98018.38;;;-1.44;76.29
4199;BME280;2113;50.946;14.610;2023-04-04T02:53:23;98020.84;;;-1.41;77.22
4199;BME280;2113;50.946;14.610;2023-04-04T02:55:54;98017.56;;;-1.46;75.88
4199;BME280;2113;50.946;14.610;2023-04-04T02:58:22;98025.09;;;-1.40;75.44
4199;BME280;2113;50.946;14.610;2023-04-04T03:00:53;98024.25;;;-1.40;75.56
4199;BME280;2113;50.946;14.610;2023-04-04T03:03:28;98023.47;;;-1.42;75.19
4199;BME280;2113;50.946;14.610;2023-04-04T03:05:58;98024.34;;;-1.44;75.54
4199;BME280;2113;50.946;14.610;2023-04-04T03:08:26;98020.22;;;-1.49;74.84
4199;BME280;2113;50.946;14.610;2023-04-04T03:10:57;98021.19;;;-1.53;75.65
4199;BME280;2113;50.946;14.610;2023-04-04T03:13:26;98018.53;;;-1.50;75.54
4199;BME280;2113;50.946;14.610;2023-04-04T03:15:59;98022.06;;;-1.54;75.53
4199;BME280;2113;50.946;14.610;2023-04-04T03:18:36;98007.63;;;-1.57;74.90
4199;BME280;2113;50.946;14.610;2023-04-04T03:21:05;98017.09;;;-1.60;75.36
4199;BME280;2113;50.946;14.610;2023-04-04T03:23:34;98007.97;;;-1.69;75.98
4199;BME280;2113;50.946;14.610;2023-04-04T03:26:02;98003.88;;;-1.76;75.84
4199;BME280;2113;50.946;14.610;2023-04-04T03:28:31;98008.31;;;-1.83;76.99
4199;BME280;2113;50.946;14.610;2023-04-04T03:31:02;98003.31;;;-1.87;76.98
4199;BME280;2113;50.946;14.610;2023-04-04T03:33:35;98007.53;;;-1.85;76.50
4199;BME280;2113;50.946;14.610;2023-04-04T03:36:09;98002.50;;;-1.89;76.73
4199;BME280;2113;50.946;14.610;2023-04-04T03:38:37;98006.06;;;-1.93;77.17
4199;BME280;2113;50.946;14.610;2023-04-04T03:41:06;98002.47;;;-1.88;77.71
4199;BME280;2113;50.946;14.610;2023-04-04T03:43:35;98004.34;;;-1.93;78.30
4199;BME280;2113;50.946;14.610;2023-04-04T03:46:04;98012.78;;;-1.91;77.46
4199;BME280;2113;50.946;14.610;2023-04-04T03:48:33;98004.34;;;-1.93;77.42
4199;BME280;2113;50.946;14.610;2023-04-04T03:51:07;98007.78;;;-1.94;76.90
4199;BME280;2113;50.946;14.610;2023-04-04T03:53:36;98008.63;;;-1.93;76.90
4199;BME280;2113;50.946;14.610;2023-04-04T03:56:04;98008.47;;;-1.89;77.11
4199;BME280;2113;50.946;14.610;2023-04-04T03:58:34;98000.94;;;-1.93;76.95
4199;BME280;2113;50.946;14.610;2023-04-04T04:01:02;98004.38;;;-1.94;77.43
4199;BME280;2113;50.946;14.610;2023-04-04T04:03:31;97998.28;;;-1.90;77.05
4199;BME280;2113;50.946;14.610;2023-04-04T04:05:59;97998.41;;;-1.95;77.89
4199;BME280;2113;50.946;14.610;2023-04-04T04:08:29;98001.97;;;-2.00;77.54
4199;BME280;2113;50.946;14.610;2023-04-04T04:11:03;98004.56;;;-2.02;77.75
4199;BME280;2113;50.946;14.610;2023-04-04T04:13:32;98002.88;;;-2.03;78.08
4199;BME280;2113;50.946;14.610;2023-04-04T04:16:02;98002.22;;;-2.09;78.25
4199;BME280;2113;50.946;14.610;2023-04-04T04:18:31;98005.53;;;-2.06;78.16
4199;BME280;2113;50.946;14.610;2023-04-04T04:20:59;98007.34;;;-2.11;78.44
4199;BME280;2113;50.946;14.610;2023-04-04T04:23:32;98012.50;;;-2.12;79.02
4199;BME280;2113;50.946;14.610;2023-04-04T04:26:01;98003.31;;;-2.20;79.45
4199;BME280;2113;50.946;14.610;2023-04-04T04:28:29;98010.91;;;-2.17;79.35
4199;BME280;2113;50.946;14.610;2023-04-04T04:31:04;98009.19;;;-2.16;79.78
4199;BME280;2113;50.946;14.610;2023-04-04T04:33:39;98015.94;;;-2.13;80.31
4199;BME280;2113;50.946;14.610;2023-04-04T04:36:08;98010.00;;;-2.14;80.13
4199;BME280;2113;50.946;14.610;2023-04-04T04:38:54;98016.00;;;-2.17;80.54
4199;BME280;2113;50.946;14.610;2023-04-04T04:41:26;98005.19;;;-2.26;81.11
4199;BME280;2113;50.946;14.610;2023-04-04T04:43:55;98010.53;;;-2.35;81.92
4199;BME280;2113;50.946;14.610;2023-04-04T04:46:25;98017.97;;;-2.26;81.63
4199;BME280;2113;50.946;14.610;2023-04-04T04:48:54;98012.13;;;-2.31;81.65
4199;BME280;2113;50.946;14.610;2023-04-04T04:51:27;98015.47;;;-2.29;81.71
4199;BME280;2113;50.946;14.610;2023-04-04T04:53:58;98017.44;;;-2.39;81.68
4199;BME280;2113;50.946;14.610;2023-04-04T04:56:27;98015.78;;;-2.41;82.13
4199;BME280;2113;50.946;14.610;2023-04-04T04:59:03;98014.16;;;-2.45;81.90
4199;BME280;2113;50.946;14.610;2023-04-04T05:01:34;98027.69;;;-2.40;82.04
4199;BME280;2113;50.946;14.610;2023-04-04T05:04:03;98015.78;;;-2.41;81.67
4199;BME280;2113;50.946;14.610;2023-04-04T05:06:41;98021.56;;;-2.33;81.93
4199;BME280;2113;50.946;14.610;2023-04-04T05:09:13;98024.91;;;-2.31;81.09
4199;BME280;2113;50.946;14.610;2023-04-04T05:11:41;98027.19;;;-2.19;81.45
4199;BME280;2113;50.946;14.610;2023-04-04T05:14:10;98029.81;;;-2.22;80.49
4199;BME280;2113;50.946;14.610;2023-04-04T05:16:47;98025.53;;;-2.22;80.62
4199;BME280;2113;50.946;14.610;2023-04-04T05:19:16;98033.03;;;-2.14;80.17
4199;BME280;2113;50.946;14.610;2023-04-04T05:21:49;98035.56;;;-2.14;79.53
4199;BME280;2113;50.946;14.610;2023-04-04T05:24:30;98040.59;;;-2.09;79.58
4199;BME280;2113;50.946;14.610;2023-04-04T05:27:00;98043.13;;;-2.08;79.12
4199;BME280;2113;50.946;14.610;2023-04-04T05:29:34;98044.34;;;-2.23;78.48
4199;BME280;2113;50.946;14.610;2023-04-04T05:32:03;98043.19;;;-2.11;79.07
4199;BME280;2113;50.946;14.610;2023-04-04T05:34:33;98040.56;;;-2.08;77.91
4199;BME280;2113;50.946;14.610;2023-04-04T05:37:06;98040.78;;;-1.83;77.04
4199;BME280;2113;50.946;14.610;2023-04-04T05:39:36;98039.84;;;-1.81;76.24
4199;BME280;2113;50.946;14.610;2023-04-04T05:42:08;98039.97;;;-1.85;76.08
4199;BME280;2113;50.946;14.610;2023-04-04T05:44:42;98047.34;;;-1.74;75.15
4199;BME280;2113;50.946;14.610;2023-04-04T05:47:11;98040.06;;;-1.90;75.48
4199;BME280;2113;50.946;14.610;2023-04-04T05:49:43;98043.00;;;-2.05;76.22
4199;BME280;2113;50.946;14.610;2023-04-04T05:52:12;98033.88;;;-2.15;76.28
4199;BME280;2113;50.946;14.610;2023-04-04T05:54:41;98038.25;;;-2.19;77.01
4199;BME280;2113;50.946;14.610;2023-04-04T05:57:15;98037.25;;;-2.13;76.24
4199;BME280;2113;50.946;14.610;2023-04-04T05:59:49;98034.69;;;-2.13;77.04
4199;BME280;2113;50.946;14.610;2023-04-04T06:02:17;98031.84;;;-2.01;76.61
4199;BME280;2113;50.946;14.610;2023-04-04T06:04:51;98035.97;;;-1.95;76.55
4199;BME280;2113;50.946;14.610;2023-04-04T06:07:28;98039.50;;;-2.01;76.26
4199;BME280;2113;50.946;14.610;2023-04-04T06:09:58;98039.47;;;-1.99;75.49
4199;BME280;2113;50.946;14.610;2023-04-04T06:12:28;98040.25;;;-1.96;76.09
4199;BME280;2113;50.946;14.610;2023-04-04T06:14:57;98040.00;;;-1.87;75.02
4199;BME280;2113;50.946;14.610;2023-04-04T06:17:26;98043.16;;;-1.77;74.63
4199;BME280;2113;50.946;14.610;2023-04-04T06:19:54;98051.53;;;-1.70;74.59
4199;BME280;2113;50.946;14.610;2023-04-04T06:22:23;98053.09;;;-1.65;74.62
4199;BME280;2113;50.946;14.610;2023-04-04T06:24:53;98045.28;;;-1.60;73.08
4199;BME280;2113;50.946;14.610;2023-04-04T06:27:26;98050.91;;;-1.48;73.82
4199;BME280;2113;50.946;14.610;2023-04-04T06:29:57;98049.94;;;-1.44;70.68
4199;BME280;2113;50.946;14.610;2023-04-04T06:32:25;98052.75;;;-1.51;69.56
4199;BME280;2113;50.946;14.610;2023-04-04T06:34:54;98046.88;;;-1.56;70.36
4199;BME280;2113;50.946;14.610;2023-04-04T06:37:38;98043.16;;;-1.77;69.08
4199;BME280;2113;50.946;14.610;2023-04-04T06:40:16;98043.56;;;-1.92;70.32
4199;BME280;2113;50.946;14.610;2023-04-04T06:42:48;98044.78;;;-1.74;70.25
4199;BME280;2113;50.946;14.610;2023-04-04T06:45:20;98050.09;;;-1.81;69.19
4199;BME280;2113;50.946;14.610;2023-04-04T06:47:49;98046.00;;;-1.88;66.56
4199;BME280;2113;50.946;14.610;2023-04-04T06:50:19;98045.69;;;-1.75;66.59
4199;BME280;2113;50.946;14.610;2023-04-04T06:52:49;98049.41;;;-1.55;65.77
4199;BME280;2113;50.946;14.610;2023-04-04T06:55:18;98044.47;;;-1.62;65.23
4199;BME280;2113;50.946;14.610;2023-04-04T06:57:48;98059.22;;;-1.70;66.66
4199;BME280;2113;50.946;14.610;2023-04-04T07:00:17;98056.38;;;-1.60;64.82
4199;BME280;2113;50.946;14.610;2023-04-04T07:02:46;98053.75;;;-1.58;64.27
4199;BME280;2113;50.946;14.610;2023-04-04T07:05:15;98059.72;;;-1.25;64.09
4199;BME280;2113;50.946;14.610;2023-04-04T07:07:44;98045.13;;;0.64;58.93
4199;BME280;2113;50.946;14.610;2023-04-04T07:10:12;98037.31;;;3.37;48.37
4199;BME280;2113;50.946;14.610;2023-04-04T07:12:41;98033.88;;;5.72;44.62
4199;BME280;2113;50.946;14.610;2023-04-04T07:15:11;98036.66;;;3.87;45.12
4199;BME280;2113;50.946;14.610;2023-04-04T07:17:40;98046.84;;;3.90;44.91
4199;BME280;2113;50.946;14.610;2023-04-04T07:20:08;98036.88;;;5.33;41.73
4199;BME280;2113;50.946;14.610;2023-04-04T07:22:37;98032.28;;;7.44;37.42
4199;BME280;2113;50.946;14.610;2023-04-04T07:25:13;98036.59;;;4.40;42.70
4199;BME280;2113;50.946;14.610;2023-04-04T07:27:42;98033.72;;;6.21;40.56
4199;BME280;2113;50.946;14.610;2023-04-04T07:30:13;98032.19;;;8.00;35.09
4199;BME280;2113;50.946;14.610;2023-04-04T07:32:42;98037.88;;;5.62;38.07
4199;BME280;2113;50.946;14.610;2023-04-04T07:35:11;98032.31;;;7.30;36.96
4199;BME280;2113;50.946;14.610;2023-04-04T07:37:39;98032.69;;;10.41;32.21
4199;BME280;2113;50.946;14.610;2023-04-04T07:40:08;98016.97;;;9.95;32.88
4199;BME280;2113;50.946;14.610;2023-04-04T07:42:42;98025.31;;;7.45;34.55
4199;BME280;2113;50.946;14.610;2023-04-04T07:45:12;98027.03;;;7.32;35.10
4199;BME280;2113;50.946;14.610;2023-04-04T07:47:42;98028.56;;;5.59;37.96
4199;BME280;2113;50.946;14.610;2023-04-04T07:50:11;98049.25;;;2.63;44.30
4199;BME280;2113;50.946;14.610;2023-04-04T07:52:39;98031.75;;;4.17;42.25
4199;BME280;2113;50.946;14.610;2023-04-04T07:55:08;98036.91;;;3.28;43.54
4199;BME280;2113;50.946;14.610;2023-04-04T07:57:37;98034.38;;;3.45;42.24
4199;BME280;2113;50.946;14.610;2023-04-04T08:00:07;98027.94;;;4.07;44.21
4199;BME280;2113;50.946;14.610;2023-04-04T08:02:42;98020.66;;;7.09;36.97
4199;BME280;2113;50.946;14.610;2023-04-04T08:05:11;98024.94;;;7.10;36.66
4199;BME280;2113;50.946;14.610;2023-04-04T08:07:39;98016.72;;;8.50;35.22
4199;BME280;2113;50.946;14.610;2023-04-04T08:10:08;98026.91;;;6.04;38.39
4199;BME280;2113;50.946;14.610;2023-04-04T08:12:37;98022.69;;;6.17;37.97
4199;BME280;2113;50.946;14.610;2023-04-04T08:15:06;98013.72;;;7.77;35.55
4199;BME280;2113;50.946;14.610;2023-04-04T08:17:35;98027.88;;;3.91;41.18
4199;BME280;2113;50.946;14.610;2023-04-04T08:20:06;98030.31;;;1.61;47.47
4199;BME280;2113;50.946;14.610;2023-04-04T08:22:35;98025.16;;;2.24;47.16
4199;BME280;2113;50.946;14.610;2023-04-04T08:25:04;98019.66;;;4.17;45.57
4199;BME280;2113;50.946;14.610;2023-04-04T08:27:33;98016.00;;;2.57;44.90
4199;BME280;2113;50.946;14.610;2023-04-04T08:30:01;98020.63;;;3.80;42.44
4199;BME280;2113;50.946;14.610;2023-04-04T08:32:31;98018.34;;;2.82;44.15
4199;BME280;2113;50.946;14.610;2023-04-04T08:34:59;98016.97;;;3.12;44.18
4199;BME280;2113;50.946;14.610;2023-04-04T08:37:29;98020.72;;;2.87;44.15
4199;BME280;2113;50.946;14.610;2023-04-04T08:39:57;98029.94;;;2.12;45.86
4199;BME280;2113;50.946;14.610;2023-04-04T08:42:34;98025.94;;;1.41;48.12
4199;BME280;2113;50.946;14.610;2023-04-04T08:45:07;98025.38;;;1.12;47.46
4199;BME280;2113;50.946;14.610;2023-04-04T08:47:38;98033.09;;;0.65;48.28
4199;BME280;2113;50.946;14.610;2023-04-04T08:50:09;98028.25;;;1.26;45.85
4199;BME280;2113;50.946;14.610;2023-04-04T08:52:39;98022.00;;;1.33;47.57
4199;BME280;2113;50.946;14.610;2023-04-04T08:55:09;98015.63;;;2.46;44.66
4199;BME280;2113;50.946;14.610;2023-04-04T08:57:38;98008.13;;;5.06;39.54
4199;BME280;2113;50.946;14.610;2023-04-04T09:00:07;97994.25;;;8.10;35.41
4199;BME280;2113;50.946;14.610;2023-04-04T09:02:41;98002.31;;;6.69;37.47
4199;BME280;2113;50.946;14.610;2023-04-04T09:05:11;97996.72;;;7.99;34.79
4199;BME280;2113;50.946;14.610;2023-04-04T09:07:42;98001.25;;;6.72;38.65
4199;BME280;2113;50.946;14.610;2023-04-04T09:10:11;98000.44;;;5.67;36.26
4199;BME280;2113;50.946;14.610;2023-04-04T09:12:41;97994.50;;;5.65;39.14
4199;BME280;2113;50.946;14.610;2023-04-04T09:15:10;97997.56;;;5.42;38.92
4199;BME280;2113;50.946;14.610;2023-04-04T09:17:39;98001.50;;;5.95;38.11
4199;BME280;2113;50.946;14.610;2023-04-04T09:20:36;98004.31;;;3.80;41.08
4199;BME280;2113;50.946;14.610;2023-04-04T09:23:09;98002.50;;;2.90;43.09
4199;BME280;2113;50.946;14.610;2023-04-04T09:25:44;98010.88;;;2.17;47.83
4199;BME280;2113;50.946;14.610;2023-04-04T09:28:26;98008.81;;;2.45;43.94
4199;BME280;2113;50.946;14.610;2023-04-04T09:30:55;98014.56;;;2.89;45.27
4199;BME280;2113;50.946;14.610;2023-04-04T09:33:23;98020.81;;;1.84;45.22
4199;BME280;2113;50.946;14.610;2023-04-04T09:35:56;98005.78;;;4.86;43.70
4199;BME280;2113;50.946;14.610;2023-04-04T09:38:28;98009.88;;;6.72;36.65
4199;BME280;2113;50.946;14.610;2023-04-04T09:40:57;98006.16;;;7.19;34.41
4199;BME280;2113;50.946;14.610;2023-04-04T09:43:25;97996.31;;;8.32;33.53
4199;BME280;2113;50.946;14.610;2023-04-04T09:45:57;98007.28;;;6.58;36.54
4199;BME280;2113;50.946;14.610;2023-04-04T09:48:29;98003.13;;;6.84;36.74
4199;BME280;2113;50.946;14.610;2023-04-04T09:50:59;98001.25;;;6.43;36.27
4199;BME280;2113;50.946;14.610;2023-04-04T09:53:38;97999.41;;;5.86;37.73
4199;BME280;2113;50.946;14.610;2023-04-04T09:56:08;98005.22;;;4.96;38.81
4199;BME280;2113;50.946;14.610;2023-04-04T09:58:37;98009.19;;;4.20;41.48
4199;BME280;2113;50.946;14.610;2023-04-04T10:01:16;98005.97;;;5.61;41.44
4199;BME280;2113;50.946;14.610;2023-04-04T10:03:50;97999.63;;;5.20;40.04
4199;BME280;2113;50.946;14.610;2023-04-04T10:06:19;98006.53;;;4.22;40.37
4199;BME280;2113;50.946;14.610;2023-04-04T10:08:49;98009.19;;;3.31;43.28
4199;BME280;2113;50.946;14.610;2023-04-04T10:11:29;98006.22;;;3.93;43.32
4199;BME280;2113;50.946;14.610;2023-04-04T10:13:58;98010.16;;;4.35;44.97
4199;BME280;2113;50.946;14.610;2023-04-04T10:16:30;98009.47;;;4.32;42.06
4199;BME280;2113;50.946;14.610;2023-04-04T10:19:00;97998.63;;;4.58;41.92
4199;BME280;2113;50.946;14.610;2023-04-04T10:21:29;98002.13;;;5.21;38.60
4199;BME280;2113;50.946;14.610;2023-04-04T10:23:59;98003.16;;;5.03;38.26
4199;BME280;2113;50.946;14.610;2023-04-04T10:26:29;98006.22;;;3.21;41.98
4199;BME280;2113;50.946;14.610;2023-04-04T10:28:57;98014.75;;;2.66;42.57
4199;BME280;2113;50.946;14.610;2023-04-04T10:31:27;98003.88;;;4.89;40.55
4199;BME280;2113;50.946;14.610;2023-04-04T10:34:06;98000.13;;;6.03;37.76
4199;BME280;2113;50.946;14.610;2023-04-04T10:36:43;98003.63;;;3.93;38.76
4199;BME280;2113;50.946;14.610;2023-04-04T10:39:23;98003.94;;;4.22;39.44
4199;BME280;2113;50.946;14.610;2023-04-04T10:41:54;97986.41;;;5.71;40.03
4199;BME280;2113;50.946;14.610;2023-04-04T10:44:27;97987.19;;;6.76;35.50
4199;BME280;2113;50.946;14.610;2023-04-04T10:46:59;97991.59;;;5.56;40.65
4199;BME280;2113;50.946;14.610;2023-04-04T10:49:30;97991.63;;;6.60;37.60
4199;BME280;2113;50.946;14.610;2023-04-04T10:52:01;97982.25;;;6.71;38.50
4199;BME280;2113;50.946;14.610;2023-04-04T10:54:31;97983.75;;;6.03;38.32
4199;BME280;2113;50.946;14.610;2023-04-04T10:57:01;97992.09;;;4.84;38.77
4199;BME280;2113;50.946;14.610;2023-04-04T10:59:29;97996.25;;;3.14;40.87
4199;BME280;2113;50.946;14.610;2023-04-04T11:01:59;97995.09;;;2.44;44.21
4199;BME280;2113;50.946;14.610;2023-04-04T11:04:32;97985.06;;;2.57;46.09
4199;BME280;2113;50.946;14.610;2023-04-04T11:07:12;97988.75;;;2.52;47.66
4199;BME280;2113;50.946;14.610;2023-04-04T11:09:49;97974.97;;;3.81;41.92
4199;BME280;2113;50.946;14.610;2023-04-04T11:12:26;97981.03;;;3.27;42.15
4199;BME280;2113;50.946;14.610;2023-04-04T11:15:07;97986.75;;;2.58;42.87
4199;BME280;2113;50.946;14.610;2023-04-04T11:17:49;97973.78;;;4.38;40.54
4199;BME280;2113;50.946;14.610;2023-04-04T11:20:20;97969.53;;;5.49;38.92
4199;BME280;2113;50.946;14.610;2023-04-04T11:22:49;97973.94;;;6.52;36.78
4199;BME280;2113;50.946;14.610;2023-04-04T11:25:27;97971.13;;;5.20;36.92
4199;BME280;2113;50.946;14.610;2023-04-04T11:27:57;97970.56;;;4.50;41.20
4199;BME280;2113;50.946;14.610;2023-04-04T11:30:25;97982.16;;;3.02;41.28
4199;BME280;2113;50.946;14.610;2023-04-04T11:32:56;97965.41;;;3.47;41.09
4199;BME280;2113;50.946;14.610;2023-04-04T11:35:26;97959.38;;;4.17;40.25
4199;BME280;2113;50.946;14.610;2023-04-04T11:37:58;97967.22;;;5.28;37.79
4199;BME280;2113;50.946;14.610;2023-04-04T11:40:36;97965.03;;;5.52;37.52
4199;BME280;2113;50.946;14.610;2023-04-04T11:43:09;97947.41;;;5.59;36.82
4199;BME280;2113;50.946;14.610;2023-04-04T11:45:43;97950.53;;;4.87;39.45
4199;BME280;2113;50.946;14.610;2023-04-04T11:48:13;97944.91;;;5.10;39.66
4199;BME280;2113;50.946;14.610;2023-04-04T11:50:45;97950.13;;;4.46;39.25
4199;BME280;2113;50.946;14.610;2023-04-04T11:53:15;97940.91;;;4.73;38.97
4199;BME280;2113;50.946;14.610;2023-04-04T11:55:47;97949.78;;;4.02;40.28
4199;BME280;2113;50.946;14.610;2023-04-04T11:58:16;97944.31;;;3.56;43.19
4199;BME280;2113;50.946;14.610;2023-04-04T12:00:46;97953.16;;;2.97;42.87
4199;BME280;2113;50.946;14.610;2023-04-04T12:03:15;97948.50;;;2.29;46.40
4199;BME280;2113;50.946;14.610;2023-04-04T12:05:45;97943.03;;;2.93;44.33
4199;BME280;2113;50.946;14.610;2023-04-04T12:08:14;97935.91;;;4.86;40.56
4199;BME280;2113;50.946;14.610;2023-04-04T12:10:48;97926.63;;;4.97;40.43
4199;BME280;2113;50.946;14.610;2023-04-04T12:13:19;97947.34;;;3.99;39.54
4199;BME280;2113;50.946;14.610;2023-04-04T12:15:47;97944.44;;;2.81;41.53
4199;BME280;2113;50.946;14.610;2023-04-04T12:18:20;97944.91;;;2.52;44.79
4199;BME280;2113;50.946;14.610;2023-04-04T12:20:49;97928.59;;;3.78;41.22
4199;BME280;2113;50.946;14.610;2023-04-04T12:23:18;97912.28;;;4.92;42.62
4199;BME280;2113;50.946;14.610;2023-04-04T12:25:56;97920.22;;;4.89;36.83
4199;BME280;2113;50.946;14.610;2023-04-04T12:28:25;97923.34;;;4.47;39.77
4199;BME280;2113;50.946;14.610;2023-04-04T12:30:54;97927.00;;;3.58;40.79
4199;BME280;2113;50.946;14.610;2023-04-04T12:33:22;97920.16;;;3.74;40.81
4199;BME280;2113;50.946;14.610;2023-04-04T12:35:51;97925.34;;;3.21;41.45
4199;BME280;2113;50.946;14.610;2023-04-04T12:38:20;97925.41;;;3.38;42.43
4199;BME280;2113;50.946;14.610;2023-04-04T12:40:50;97907.25;;;3.91;41.38
4199;BME280;2113;50.946;14.610;2023-04-04T12:43:19;97909.63;;;3.96;39.67
4199;BME280;2113;50.946;14.610;2023-04-04T12:45:49;97925.47;;;3.37;42.58
4199;BME280;2113;50.946;14.610;2023-04-04T12:48:18;97923.25;;;3.29;42.97
4199;BME280;2113;50.946;14.610;2023-04-04T12:50:50;97926.09;;;3.76;42.10
4199;BME280;2113;50.946;14.610;2023-04-04T12:53:20;97916.88;;;4.22;39.76
4199;BME280;2113;50.946;14.610;2023-04-04T12:55:55;97908.00;;;3.93;41.13
4199;BME280;2113;50.946;14.610;2023-04-04T12:58:26;97918.78;;;3.50;41.52
4199;BME280;2113;50.946;14.610;2023-04-04T13:00:58;97914.38;;;2.99;43.50
4199;BME280;2113;50.946;14.610;2023-04-04T13:03:28;97923.94;;;2.78;40.74
4199;BME280;2113;50.946;14.610;2023-04-04T13:05:57;97898.88;;;3.69;43.97
4199;BME280;2113;50.946;14.610;2023-04-04T13:08:25;97905.56;;;4.56;38.34
4199;BME280;2113;50.946;14.610;2023-04-04T13:11:02;97900.72;;;5.29;41.83
4199;BME280;2113;50.946;14.610;2023-04-04T13:13:34;97899.59;;;6.37;36.05
4199;BME280;2113;50.946;14.610;2023-04-04T13:16:04;97900.81;;;5.27;36.03
4199;BME280;2113;50.946;14.610;2023-04-04T13:18:36;97895.91;;;5.07;35.89
4199;BME280;2113;50.946;14.610;2023-04-04T13:21:05;97891.34;;;6.30;38.21
4199;BME280;2113;50.946;14.610;2023-04-04T13:23:35;97883.09;;;7.07;37.90
4199;BME280;2113;50.946;14.610;2023-04-04T13:26:08;97872.09;;;6.90;37.33
4199;BME280;2113;50.946;14.610;2023-04-04T13:28:37;97883.00;;;6.54;37.56
4199;BME280;2113;50.946;14.610;2023-04-04T13:31:07;97883.78;;;5.23;38.31
4199;BME280;2113;50.946;14.610;2023-04-04T13:33:37;97883.44;;;5.89;37.62
4199;BME280;2113;50.946;14.610;2023-04-04T13:36:06;97881.75;;;5.28;38.08